• Join FlightAware (Why Join?)
  • Login
  • US Flag 
06:20PM EDT


 

Airport Tracker/Info


-or-


 

Live Flight TrackerFlight Track Log ✈ FEX11 ✈ 30-Jun-2013 ✈ CYWG - CYXU

Flight Track Log - Related Links

Times and Time Zones

All times are in EDT time to prevent confusion due to time zone crossing. See the FEX11 flight status page for this flight to view local times or setup timezone preferences in your user account.

Time Position Orientation Groundspeed Altitude Reporting Facility
EDT Latitude Longitude Course Direction KTS MPH feet Rate Location/Type
09:51PM 49.9000 -97.0667 159° South 300 345 9,800  Level Winnipeg Center
09:52PM 49.8167 -97.0167 159° South 350 403 11,200 1,980 Climbing Winnipeg Center
09:53PM 49.7333 -96.9333 147° Southeast 350 403 13,800 2,340 Climbing Winnipeg Center
09:54PM 49.6667 -96.8333 136° Southeast 340 391 15,900 1,800 Climbing Winnipeg Center
09:55PM 49.6000 -96.7000 128° Southeast 360 414 17,400 1,440 Climbing Winnipeg Center
09:56PM 49.5333 -96.5833 131° Southeast 380 437 18,800 1,740 Climbing Winnipeg Center
09:57PM 49.4667 -96.4500 128° Southeast 380 437 20,900 1,920 Climbing Winnipeg Center
09:58PM 49.4000 -96.3500 136° Southeast 380 437 22,700 1,740 Climbing Winnipeg Center
09:59PM 49.3000 -96.2167 139° Southeast 380 437 24,400 1,320 Climbing Winnipeg Center
10:01PM 49.1906 -95.9925 127° Southeast 400 460 26,700 1,200 Climbing Minneapolis Center
10:02PM 49.1128 -95.8619 132° Southeast 411 473 28,100 1,380 Climbing Minneapolis Center
10:03PM 49.0336 -95.7389 134° Southeast 409 471 29,600 1,200 Climbing Minneapolis Center
10:04PM 48.9439 -95.6278 141° Southeast 414 476 30,600 780 Climbing Minneapolis Center
10:05PM 48.8939 -95.5206 125° Southeast 419 482 31,300 840 Climbing Minneapolis Center
10:06PM 48.8517 -95.3200 108° East 417 480 32,400 960 Climbing Minneapolis Center
10:07PM 48.7839 -95.1336 119° Southeast 419 482 33,300 900 Climbing Minneapolis Center
10:08PM 48.7258 -94.9753 119° Southeast 428 493 34,300 1,020 Climbing Minneapolis Center
10:09PM 48.6742 -94.8172 116° Southeast 424 488 35,400 660 Climbing Minneapolis Center
10:10PM 48.6189 -94.6644 119° Southeast 417 480 35,700 360 Climbing Minneapolis Center
10:11PM 48.5622 -94.5075 119° Southeast 422 486 36,200 540 Climbing Minneapolis Center
10:12PM 48.5058 -94.3514 119° Southeast 425 489 36,900 300 Climbing Minneapolis Center
10:13PM 48.4500 -94.1953 118° Southeast 424 488 36,900  Level Minneapolis Center
10:14PM 48.3914 -94.0353 119° Southeast 432 497 37,000  Climbing Minneapolis Center
10:15PM 48.3319 -93.8714 119° Southeast 442 509 37,000  Level Minneapolis Center
10:16PM 48.2697 -93.7053 119° Southeast 452 520 37,000 -60 Level Minneapolis Center
10:17PM 48.1939 -93.5022 119° Southeast 461 531 36,900 -60 Descending Minneapolis Center
10:18PM 48.1306 -93.3333 119° Southeast 465 535 36,900  Level Minneapolis Center
10:19PM 48.0672 -93.1619 119° Southeast 468 539 36,900  Level Minneapolis Center
10:20PM 48.0025 -92.9914 120° Southeast 470 541 36,900  Level Minneapolis Center
10:21PM 47.9364 -92.8200 120° Southeast 471 542 36,900  Level Minneapolis Center
10:22PM 47.8714 -92.6481 119° Southeast 473 544 36,900  Level Minneapolis Center
10:23PM 47.8050 -92.4775 120° Southeast 474 545 37,000 300 Climbing Minneapolis Center
10:24PM 47.7269 -92.2769 120° Southeast 469 540 37,600 780 Climbing Minneapolis Center
10:25PM 47.6650 -92.1186 120° Southeast 449 517 38,600 540 Climbing Minneapolis Center
10:26PM 47.6050 -91.9658 120° Southeast 433 498 38,800 120 Climbing Minneapolis Center
10:28PM 47.5433 -91.8111 121° Southeast 435 501 39,000 60 Climbing Minneapolis Center
10:29PM 47.4686 -91.6233 120° Southeast 440 506 39,000  Level Minneapolis Center
10:30PM 47.3917 -91.4339 121° Southeast 448 516 39,000  Level Minneapolis Center
10:31PM 47.3272 -91.2750 121° Southeast 450 518 39,000  Level Minneapolis Center
10:32PM 47.2639 -91.1164 120° Southeast 450 518 39,000  Level Minneapolis Center
10:33PM 47.1981 -90.9589 122° Southeast 451 519 39,000  Level Minneapolis Center
10:34PM 47.1336 -90.8017 121° Southeast 450 518 39,000  Level Minneapolis Center
10:35PM 47.0675 -90.6464 122° Southeast 450 518 39,000  Level Minneapolis Center
10:36PM 47.0031 -90.4894 121° Southeast 450 518 39,000  Level Minneapolis Center
10:37PM 46.9381 -90.3364 122° Southeast 450 518 39,000  Level Minneapolis Center
10:38PM 46.8592 -90.1497 122° Southeast 449 517 39,000  Level Minneapolis Center
10:39PM 46.7928 -89.9933 122° Southeast 451 519 39,000  Level Minneapolis Center
10:40PM 46.7253 -89.8389 122° Southeast 450 518 39,000  Level Minneapolis Center
10:41PM 46.6586 -89.6814 122° Southeast 455 524 39,000  Level Minneapolis Center
10:42PM 46.5914 -89.5267 122° Southeast 453 521 39,000  Level Minneapolis Center
10:43PM 46.5244 -89.3711 122° Southeast 452 520 39,000  Level Minneapolis Center
10:44PM 46.4567 -89.2139 122° Southeast 455 524 39,000  Level Minneapolis Center
10:45PM 46.3950 -89.0719 122° Southeast 454 522 39,000  Level Minneapolis Center
10:46PM 46.3111 -88.8867 123° Southeast 457 526 39,000  Level Minneapolis Center
10:47PM 46.2500 -88.7483 123° Southeast 451 519 39,000  Level Minneapolis Center
10:48PM 46.1814 -88.5917 122° Southeast 458 527 39,000  Level Minneapolis Center
10:49PM 46.1111 -88.4378 123° Southeast 459 528 39,000  Level Minneapolis Center
10:50PM 46.0408 -88.2822 123° Southeast 461 531 39,000  Level Minneapolis Center
10:51PM 45.9650 -88.1175 123° Southeast 462 532 39,000  Level Minneapolis Center
10:52PM 45.8814 -87.9336 123° Southeast 460 529 39,000  Level Minneapolis Center
10:53PM 45.8128 -87.7819 123° Southeast 454 522 39,000 -60 Level Minneapolis Center
10:54PM 45.7436 -87.6342 124° Southeast 450 518 38,900  Descending Minneapolis Center
10:55PM 45.6619 -87.4575 123° Southeast 444 511 39,000  Climbing Minneapolis Center
10:56PM 45.5936 -87.3122 124° Southeast 442 509 39,000  Level Minneapolis Center
10:58PM 45.5253 -87.1692 124° Southeast 438 504 39,000  Level Minneapolis Center
10:59PM 45.4581 -87.0267 124° Southeast 435 501 39,000  Level Minneapolis Center
11:00PM 45.3900 -86.8853 124° Southeast 435 501 39,000  Level Minneapolis Center
11:01PM 45.3219 -86.7406 124° Southeast 438 504 39,000  Level Minneapolis Center
11:02PM 45.2519 -86.5978 125° Southeast 441 507 39,000  Level Minneapolis Center
11:03PM 45.1753 -86.4356 124° Southeast 449 517 39,000  Level Minneapolis Center
11:04PM 45.1025 -86.2881 125° Southeast 455 524 39,000  Level Minneapolis Center
11:05PM 45.0297 -86.1367 124° Southeast 456 525 39,000  Level Minneapolis Center
11:06PM 44.9592 -85.9933 125° Southeast 454 522 39,000  Level Minneapolis Center
11:07PM 44.8861 -85.8456 125° Southeast 457 526 39,100  Climbing Minneapolis Center
11:08PM 44.8133 -85.6975 125° Southeast 459 528 39,000 -60 Descending Minneapolis Center
11:09PM 44.7428 -85.5556 125° Southeast 458 527 39,000  Level Minneapolis Center
11:10PM 44.6689 -85.4094 125° Southeast 459 528 39,000  Level Minneapolis Center
11:11PM 44.5956 -85.2633 125° Southeast 457 526 39,000  Level Minneapolis Center
11:12PM 44.5089 -85.0919 125° Southeast 453 521 39,000 -360 Level Minneapolis Center
11:13PM 44.4358 -84.9472 125° Southeast 453 521 38,300 -1,140 Descending Minneapolis Center
11:14PM 44.3614 -84.8000 125° Southeast 462 532 36,800 -1,200 Descending Minneapolis Center
11:15PM 44.2883 -84.6589 126° Southeast 453 521 35,900 -900 Descending Minneapolis Center
11:16PM 44.2150 -84.5164 126° Southeast 452 520 35,000 -480 Descending Minneapolis Center
11:17PM 44.1394 -84.3725 126° Southeast 459 528 35,000  Level Minneapolis Center
11:18PM 44.0644 -84.2261 125° Southeast 465 535 35,000 -360 Level Minneapolis Center
11:19PM 43.9889 -84.0811 126° Southeast 466 536 34,300 -1,140 Descending Minneapolis Center
11:20PM 43.9108 -83.9350 127° Southeast 455 524 32,700 -1,860 Descending Minneapolis Center
11:21PM 43.8353 -83.7914 126° Southeast 459 528 30,600 -1,860 Descending Minneapolis Center
11:22PM 43.7583 -83.6469 126° Southeast 463 533 29,000 -1,560 Descending Minneapolis Center
11:23PM 43.6839 -83.5061 126° Southeast 458 527 27,500 -1,380 Descending Minneapolis Center
11:24PM 43.6114 -83.3694 126° Southeast 447 514 26,200 -1,380 Descending Minneapolis Center
11:25PM 43.5381 -83.2353 127° Southeast 441 507 24,800 -1,380 Descending Minneapolis Center
11:26PM 43.4661 -83.1022 127° Southeast 436 502 23,500 -1,440 Descending Minneapolis Center
11:27PM 43.3961 -82.9703 126° Southeast 430 495 21,900 -2,220 Descending Minneapolis Center
11:28PM 43.3014 -82.7961 127° Southeast 467 537 19,100 -1,920 Descending Minneapolis Center
11:29PM 43.2397 -82.6500 120° Southeast 451 519 18,100 -1,020 Descending Minneapolis Center
11:30PM 43.2325 -82.5258 95° East 420 483 17,100 -1,620 Descending Minneapolis Center
11:31PM 43.2169 -82.3228 96° East 416 479 14,900 -2,400 Descending Minneapolis Center
11:32PM 43.1667 -82.1500 112° Southeast 420 483 11,900 -2,700 Descending Toronto Center